Aérodrome :
LOGIN :

S'inscrire | Disclaimer

   EN    FR    IT 

 










Légende :    VFR   VFR Marginal   IFR   IFR Intensif   IFR Très Intensif
Visi : 
Plafond : 
>= 8 km
>= 3000ft
5 à 8 km
1000 à 3000 ft
1500m à 5 km
500 à 1000 ft
800 à 1500m
200 à 500 ft
< 800m
< 200 ft
Symboles :   Orages  Brouillard  Fortes neiges  Fortes précipitations  Vent > 20 kt
SIGMETs :   Divers  Orages  Givrage  Turbulence  Onde Orograph.  Cendres Volcan.






- Altitude de l'aérodrome : 373 ft
- Code IATA : OZH


UKDE - Mokraya

DERNIER METAR :
  • 270200Z 15003MPS 120V180 CAVOK 05/02 Q1000 R20L/090070 NOSIG

METARs EXPIRÉS :
  • 270100Z 16005MPS CAVOK 05/02 Q1000 R20L/090070 NOSIG
  • 270000Z 17004MPS 130V200 CAVOK 05/03 Q1001 R20L/090070 NOSIG
  • 262330Z 17004MPS CAVOK 05/03 Q1001 R20L/090070 NOSIG

TAF TAF UKDE
Valide du 27 à 00h jusqu'au 27 à 09h UTC


262302Z 2700/2709 17006MPS 9999 BKN020 TX10/2709Z TN04/2703Z
TEMPO 2700/2707 2100 BR BKN007
TEMPO 2707/2709 18007G12MPS



MET'MAP, la Météo Aéronautique d'un coup d'oeil ! - Copyright ORBIFLY Décembre 2007 - Disclaimer

ORBIFLY MET'MAP TEAM :

Programmation & Développement : Alexandra Zaïnal
Sur une idée originale de : Baudouin d'Aumeries
Assistance à la programmation : Marc-Olivier Méhu
Soutien technique & logistique : Manuel Goepfert

Contact : metmap@orbifly.com




SOURCES & CREDITS :

   NOAA